createdAt,value
2022-11-28T00:02:17.250Z,2.15
2022-11-28T00:07:19.124Z,2.30
2022-11-28T00:12:21.224Z,2.03
2022-11-28T00:17:23.167Z,2.30
2022-11-28T00:22:27.820Z,2.13
2022-11-28T00:27:29.714Z,2.30
2022-11-28T00:32:31.504Z,2.05
2022-11-28T00:37:33.299Z,2.35
2022-11-28T00:42:35.255Z,2.10
2022-11-28T00:47:37.026Z,2.35
2022-11-28T00:52:38.797Z,2.28
2022-11-28T00:57:40.808Z,2.35
2022-11-28T01:02:42.648Z,3.20
2022-11-28T01:07:44.570Z,2.15
2022-11-28T01:12:46.373Z,2.30
2022-11-28T01:17:48.152Z,2.20
2022-11-28T01:22:50.060Z,2.42
2022-11-28T01:27:52.027Z,2.53
2022-11-28T01:32:53.927Z,2.60
2022-11-28T01:37:55.861Z,2.40
2022-11-28T01:42:57.724Z,3.00
2022-11-28T01:48:03.024Z,2.58
2022-11-28T01:53:08.399Z,2.30
2022-11-28T01:58:11.869Z,3.42
2022-11-28T02:03:20.113Z,2.75
2022-11-28T02:08:22.057Z,2.75
2022-11-28T02:13:56.714Z,2.55
2022-11-28T02:19:27.947Z,2.28
2022-11-28T02:25:01.274Z,2.65
2022-11-28T02:30:12.212Z,2.80
2022-11-28T02:35:33.134Z,3.13
2022-11-28T02:46:15.224Z,3.15
2022-11-28T02:51:31.468Z,3.15
2022-11-28T02:56:36.274Z,2.78
2022-11-28T03:01:38.569Z,3.33
2022-11-28T03:07:05.463Z,3.63
2022-11-28T03:12:21.430Z,2.95
2022-11-28T03:17:55.097Z,3.45
2022-11-28T03:23:00.984Z,3.67
2022-11-28T03:28:43.365Z,3.55
2022-11-28T03:33:52.116Z,3.65
2022-11-28T03:39:07.531Z,3.13
2022-11-28T03:44:16.058Z,3.22
2022-11-28T03:49:27.155Z,3.47
2022-11-28T03:54:42.583Z,3.08
2022-11-28T03:59:51.226Z,3.20
2022-11-28T04:04:55.839Z,3.28
2022-11-28T04:10:20.178Z,3.08
2022-11-28T04:15:30.636Z,3.55
2022-11-28T04:20:45.114Z,3.50
2022-11-28T04:26:03.431Z,3.60
2022-11-28T04:31:07.381Z,3.53
2022-11-28T04:36:11.987Z,3.70
2022-11-28T04:41:24.559Z,3.33
2022-11-28T04:46:36.209Z,3.40
2022-11-28T04:52:12.918Z,3.05
2022-11-28T04:57:37.973Z,3.95
2022-11-28T05:02:41.499Z,3.38
2022-11-28T05:07:43.501Z,3.40
2022-11-28T05:12:46.094Z,3.40
2022-11-28T05:17:47.969Z,4.07
2022-11-28T05:22:49.853Z,3.28
2022-11-28T05:27:51.852Z,3.70
2022-11-28T05:32:53.641Z,3.45
2022-11-28T05:37:55.574Z,3.58
2022-11-28T05:42:57.307Z,3.55
2022-11-28T05:47:59.034Z,3.80
2022-11-28T05:53:00.937Z,4.13
2022-11-28T05:58:02.712Z,4.63
2022-11-28T06:03:05.419Z,4.43
2022-11-28T06:08:07.786Z,4.85
2022-11-28T06:13:09.513Z,4.40
2022-11-28T06:18:11.300Z,4.85
2022-11-28T06:23:13.227Z,4.90
2022-11-28T06:28:14.997Z,5.10
2022-11-28T06:33:16.743Z,5.25
2022-11-28T06:38:18.570Z,5.55
2022-11-28T06:43:22.858Z,6.18
2022-11-28T06:48:24.998Z,5.93
2022-11-28T06:53:31.344Z,5.57
2022-11-28T06:58:33.644Z,6.60
2022-11-28T07:03:36.085Z,6.10
2022-11-28T07:08:38.424Z,6.65
2022-11-28T07:13:41.387Z,7.00
2022-11-28T07:18:44.193Z,7.70
2022-11-28T07:23:46.784Z,8.00
2022-11-28T07:28:50.286Z,7.32
2022-11-28T07:33:52.543Z,7.85
2022-11-28T07:38:57.030Z,8.45
2022-11-28T07:44:00.799Z,8.07
2022-11-28T07:49:02.885Z,7.47
2022-11-28T07:54:05.063Z,6.88
2022-11-28T07:59:07.563Z,7.18
2022-11-28T08:04:10.183Z,6.28
2022-11-28T08:09:12.252Z,6.35
2022-11-28T08:14:14.410Z,5.45
2022-11-28T08:19:16.392Z,6.28
2022-11-28T08:24:18.174Z,6.22
2022-11-28T08:29:19.998Z,7.10
2022-11-28T08:34:21.740Z,8.20
2022-11-28T08:39:24.875Z,7.57
2022-11-28T08:44:30.224Z,7.53
2022-11-28T08:49:32.604Z,7.13
2022-11-28T08:54:34.448Z,7.05
2022-11-28T08:59:37.138Z,7.15
2022-11-28T09:04:39.028Z,7.85
2022-11-28T09:09:40.831Z,7.15
2022-11-28T09:14:45.177Z,7.93
2022-11-28T09:19:47.017Z,7.40
2022-11-28T09:24:48.990Z,7.30
2022-11-28T09:29:50.816Z,7.07
2022-11-28T09:34:52.648Z,7.95
2022-11-28T09:40:12.717Z,7.68
2022-11-28T09:45:21.364Z,8.38
2022-11-28T09:50:26.860Z,8.18
2022-11-28T09:55:47.845Z,8.15
2022-11-28T10:01:00.075Z,7.63
2022-11-28T10:06:15.979Z,7.75
2022-11-28T10:11:58.300Z,8.02
2022-11-28T10:17:54.140Z,8.00
2022-11-28T10:22:57.898Z,7.93
2022-11-28T10:27:59.667Z,8.43
2022-11-28T10:33:19.254Z,8.52
2022-11-28T10:38:25.840Z,8.52
2022-11-28T10:43:38.165Z,8.40
2022-11-28T10:49:19.540Z,8.30
2022-11-28T10:54:39.553Z,7.38
2022-11-28T11:00:00.033Z,8.23
2022-11-28T11:05:01.947Z,5.68
2022-11-28T11:10:16.230Z,7.43
2022-11-28T11:15:22.032Z,6.95
2022-11-28T11:20:26.683Z,7.13
2022-11-28T11:25:31.404Z,7.28
2022-11-28T11:30:45.984Z,8.23
2022-11-28T11:35:49.523Z,7.90
2022-11-28T11:40:52.035Z,7.60
2022-11-28T11:46:14.166Z,7.55
2022-11-28T11:51:22.463Z,8.25
2022-11-28T11:56:24.354Z,7.35
2022-11-28T12:01:28.488Z,7.82
2022-11-28T12:06:39.464Z,7.38
2022-11-28T12:11:49.162Z,7.60
2022-11-28T12:17:46.983Z,6.15
2022-11-28T12:22:57.709Z,6.25
2022-11-28T12:28:28.653Z,6.38
2022-11-28T12:33:56.483Z,6.45
2022-11-28T12:39:12.977Z,5.65
2022-11-28T12:44:54.228Z,7.28
2022-11-28T12:50:19.168Z,6.40
2022-11-28T12:55:30.571Z,6.45
2022-11-28T13:00:34.515Z,7.28
2022-11-28T13:05:43.796Z,5.63
2022-11-28T13:11:18.408Z,6.55
2022-11-28T13:16:33.899Z,7.05
2022-11-28T13:22:06.853Z,6.15
2022-11-28T13:27:21.922Z,6.30
2022-11-28T13:32:55.779Z,6.50
2022-11-28T13:43:52.351Z,5.00
2022-11-28T13:49:14.872Z,6.30
2022-11-28T13:54:17.356Z,5.65
2022-11-28T13:59:22.199Z,6.90
2022-11-28T14:04:24.872Z,6.07
2022-11-28T14:09:57.630Z,5.97
2022-11-28T14:15:31.533Z,6.13
2022-11-28T14:20:57.673Z,6.22
2022-11-28T14:25:59.884Z,6.68
2022-11-28T14:31:31.039Z,6.88
2022-11-28T14:36:41.891Z,6.47
2022-11-28T14:47:18.237Z,6.20
2022-11-28T14:52:38.375Z,6.75
2022-11-28T14:57:53.207Z,6.43
2022-11-28T15:03:00.847Z,6.80
2022-11-28T15:08:29.793Z,7.03
2022-11-28T15:13:52.716Z,7.80
2022-11-28T15:19:06.131Z,6.55
2022-11-28T15:24:31.001Z,6.72
2022-11-28T15:29:33.051Z,7.10
2022-11-28T15:34:37.331Z,6.10
2022-11-28T15:39:41.289Z,6.78
2022-11-28T15:44:44.170Z,6.95
2022-11-28T15:49:46.725Z,6.15
2022-11-28T15:54:51.508Z,7.15
2022-11-28T15:59:53.543Z,5.75
2022-11-28T16:05:10.866Z,5.38
2022-11-28T16:10:37.006Z,7.50
2022-11-28T16:15:39.006Z,6.97
2022-11-28T16:20:40.891Z,7.78
2022-11-28T16:25:42.816Z,7.25
2022-11-28T16:30:48.336Z,8.10
2022-11-28T16:35:50.352Z,7.65
2022-11-28T16:40:59.042Z,7.10
2022-11-28T16:46:03.225Z,6.45
2022-11-28T16:51:10.964Z,7.15
2022-11-28T16:56:24.764Z,8.13
2022-11-28T17:01:27.761Z,6.82
2022-11-28T17:06:34.427Z,7.47
2022-11-28T17:11:41.127Z,9.88
2022-11-28T17:16:43.341Z,9.70
2022-11-28T17:21:50.554Z,9.52
2022-11-28T17:26:53.415Z,9.85
2022-11-28T17:31:57.740Z,10.10
2022-11-28T17:37:00.956Z,9.25
2022-11-28T17:42:02.935Z,10.25
2022-11-28T17:47:04.834Z,9.45
2022-11-28T17:52:06.820Z,8.73
2022-11-28T17:57:09.704Z,10.05
2022-11-28T18:02:11.773Z,10.02
2022-11-28T18:07:13.761Z,13.00
2022-11-28T18:12:15.618Z,12.98
2022-11-28T18:17:17.866Z,10.65
2022-11-28T18:22:19.707Z,11.48
2022-11-28T18:27:21.694Z,10.93
2022-11-28T18:32:23.620Z,11.30
2022-11-28T18:37:25.482Z,11.90
2022-11-28T18:42:27.799Z,10.82
2022-11-28T18:47:31.074Z,9.38
2022-11-28T18:52:33.160Z,11.10
2022-11-28T18:57:35.802Z,10.35
2022-11-28T19:02:37.634Z,10.63
2022-11-28T19:07:39.575Z,11.35
2022-11-28T19:12:41.454Z,12.07
2022-11-28T19:17:43.354Z,12.82
2022-11-28T19:22:45.132Z,12.40
2022-11-28T19:27:47.191Z,11.60
2022-11-28T19:32:49.108Z,11.52
2022-11-28T19:37:51.267Z,12.85
2022-11-28T19:42:53.017Z,12.15
2022-11-28T19:47:54.906Z,12.43
2022-11-28T19:52:56.822Z,11.85
2022-11-28T19:57:59.055Z,14.38
2022-11-28T20:03:00.867Z,13.13
2022-11-28T20:08:03.193Z,13.55
2022-11-28T20:13:06.480Z,13.35
2022-11-28T20:18:09.667Z,12.40
2022-11-28T20:23:11.952Z,11.15
2022-11-28T20:28:14.140Z,10.93
2022-11-28T20:33:15.875Z,12.45
2022-11-28T20:38:17.917Z,12.60
2022-11-28T20:43:21.438Z,15.90
2022-11-28T20:48:23.695Z,14.75
2022-11-28T20:53:27.058Z,13.13
2022-11-28T20:58:31.722Z,14.20
2022-11-28T21:03:34.384Z,13.05
2022-11-28T21:08:36.932Z,13.45
2022-11-28T21:13:39.111Z,13.27
2022-11-28T21:18:43.050Z,14.40
2022-11-28T21:23:45.555Z,14.93
2022-11-28T21:28:49.465Z,15.07
2022-11-28T21:33:52.704Z,14.23
2022-11-28T21:38:59.346Z,13.77
2022-11-28T21:44:01.367Z,14.52
2022-11-28T21:49:03.255Z,13.88
2022-11-28T21:54:05.282Z,16.58
2022-11-28T21:59:07.182Z,16.58
2022-11-28T22:04:10.631Z,17.00
2022-11-28T22:09:12.776Z,15.27
2022-11-28T22:14:14.650Z,14.90
2022-11-28T22:19:16.684Z,15.25
2022-11-28T22:24:18.520Z,15.77
2022-11-28T22:29:20.326Z,17.05
2022-11-28T22:34:22.089Z,16.50
2022-11-28T22:39:23.821Z,15.48
2022-11-28T22:44:25.716Z,15.80
2022-11-28T22:49:27.740Z,16.48
2022-11-28T22:54:29.586Z,15.90
2022-11-28T22:59:34.524Z,15.40
2022-11-28T23:04:36.310Z,15.82
2022-11-28T23:09:38.096Z,15.30
2022-11-28T23:14:40.142Z,15.00
2022-11-28T23:19:42.030Z,15.20
2022-11-28T23:24:44.028Z,15.25
2022-11-28T23:29:45.926Z,14.65
2022-11-28T23:34:48.406Z,14.93
2022-11-28T23:39:50.194Z,14.38
2022-11-28T23:44:52.122Z,14.27
2022-11-28T23:49:53.838Z,14.25
2022-11-28T23:54:55.605Z,14.70
2022-11-28T23:59:57.505Z,14.23
